sensor_id;sensor_type;location;lat;lon;timestamp;temperature;humidity
70708;SHT30;58277;47.316;18.908;2023-02-15T00:00:51;1.37;84.88
70708;SHT30;58277;47.316;18.908;2023-02-15T00:03:16;1.43;84.88
70708;SHT30;58277;47.316;18.908;2023-02-15T00:05:39;1.38;84.95
70708;SHT30;58277;47.316;18.908;2023-02-15T00:08:01;1.37;84.92
70708;SHT30;58277;47.316;18.908;2023-02-15T00:10:24;1.43;84.74
70708;SHT30;58277;47.316;18.908;2023-02-15T00:12:47;1.40;84.67
70708;SHT30;58277;47.316;18.908;2023-02-15T00:15:11;1.50;84.50
70708;SHT30;58277;47.316;18.908;2023-02-15T00:17:35;1.43;84.72
70708;SHT30;58277;47.316;18.908;2023-02-15T00:19:59;1.43;84.78
70708;SHT30;58277;47.316;18.908;2023-02-15T00:22:22;1.44;84.76
70708;SHT30;58277;47.316;18.908;2023-02-15T00:24:45;1.40;84.84
70708;SHT30;58277;47.316;18.908;2023-02-15T00:27:08;1.40;84.76
70708;SHT30;58277;47.316;18.908;2023-02-15T00:29:32;1.37;84.78
70708;SHT30;58277;47.316;18.908;2023-02-15T00:31:55;1.31;85.01
70708;SHT30;58277;47.316;18.908;2023-02-15T00:34:24;1.28;85.06
70708;SHT30;58277;47.316;18.908;2023-02-15T00:36:48;1.30;85.02
70708;SHT30;58277;47.316;18.908;2023-02-15T00:39:12;1.34;84.98
70708;SHT30;58277;47.316;18.908;2023-02-15T00:41:35;1.23;85.27
70708;SHT30;58277;47.316;18.908;2023-02-15T00:43:58;1.28;85.27
70708;SHT30;58277;47.316;18.908;2023-02-15T00:46:21;1.24;85.39
70708;SHT30;58277;47.316;18.908;2023-02-15T00:48:44;1.27;85.08
70708;SHT30;58277;47.316;18.908;2023-02-15T00:51:07;1.26;85.31
70708;SHT30;58277;47.316;18.908;2023-02-15T00:53:29;1.27;85.32
70708;SHT30;58277;47.316;18.908;2023-02-15T00:55:53;1.22;85.32
70708;SHT30;58277;47.316;18.908;2023-02-15T00:58:17;1.23;85.36
70708;SHT30;58277;47.316;18.908;2023-02-15T01:00:42;1.24;85.23
70708;SHT30;58277;47.316;18.908;2023-02-15T01:03:05;1.19;85.39
70708;SHT30;58277;47.316;18.908;2023-02-15T01:05:28;1.20;85.42
70708;SHT30;58277;47.316;18.908;2023-02-15T01:07:52;1.20;85.29
70708;SHT30;58277;47.316;18.908;2023-02-15T01:10:16;1.17;85.27
70708;SHT30;58277;47.316;18.908;2023-02-15T01:12:38;1.06;85.72
70708;SHT30;58277;47.316;18.908;2023-02-15T01:15:01;1.06;85.99
70708;SHT30;58277;47.316;18.908;2023-02-15T01:17:24;0.99;86.23
70708;SHT30;58277;47.316;18.908;2023-02-15T01:19:47;0.96;86.32
70708;SHT30;58277;47.316;18.908;2023-02-15T01:22:10;1.01;86.14
70708;SHT30;58277;47.316;18.908;2023-02-15T01:24:32;1.06;85.67
70708;SHT30;58277;47.316;18.908;2023-02-15T01:26:57;1.03;85.65
70708;SHT30;58277;47.316;18.908;2023-02-15T01:29:21;1.03;85.88
70708;SHT30;58277;47.316;18.908;2023-02-15T01:31:44;1.08;86.00
70708;SHT30;58277;47.316;18.908;2023-02-15T01:34:09;1.08;85.75
70708;SHT30;58277;47.316;18.908;2023-02-15T01:36:33;0.97;85.99
70708;SHT30;58277;47.316;18.908;2023-02-15T01:38:56;0.96;86.19
70708;SHT30;58277;47.316;18.908;2023-02-15T01:41:19;0.93;86.06
70708;SHT30;58277;47.316;18.908;2023-02-15T01:43:48;0.90;86.13
70708;SHT30;58277;47.316;18.908;2023-02-15T01:46:16;0.87;86.20
70708;SHT30;58277;47.316;18.908;2023-02-15T01:48:44;0.90;86.03
70708;SHT30;58277;47.316;18.908;2023-02-15T01:51:09;0.87;86.02
70708;SHT30;58277;47.316;18.908;2023-02-15T01:53:42;0.80;86.04
70708;SHT30;58277;47.316;18.908;2023-02-15T01:56:27;0.80;86.16
70708;SHT30;58277;47.316;18.908;2023-02-15T01:58:53;0.83;86.17
70708;SHT30;58277;47.316;18.908;2023-02-15T02:01:18;0.87;86.09
70708;SHT30;58277;47.316;18.908;2023-02-15T02:06:26;0.92;85.71
70708;SHT30;58277;47.316;18.908;2023-02-15T02:08:49;0.97;85.32
70708;SHT30;58277;47.316;18.908;2023-02-15T02:11:14;0.92;85.53
70708;SHT30;58277;47.316;18.908;2023-02-15T02:13:42;0.99;85.63
70708;SHT30;58277;47.316;18.908;2023-02-15T02:24:23;0.90;84.87
70708;SHT30;58277;47.316;18.908;2023-02-15T02:29:32;0.85;84.73
70708;SHT30;58277;47.316;18.908;2023-02-15T02:35:01;0.70;85.39
70708;SHT30;58277;47.316;18.908;2023-02-15T02:37:51;0.55;85.66
70708;SHT30;58277;47.316;18.908;2023-02-15T02:40:29;0.49;85.82
70708;SHT30;58277;47.316;18.908;2023-02-15T02:43:01;0.52;85.36
70708;SHT30;58277;47.316;18.908;2023-02-15T02:45:35;0.44;85.53
70708;SHT30;58277;47.316;18.908;2023-02-15T02:48:10;0.32;85.57
70708;SHT30;58277;47.316;18.908;2023-02-15T02:50:39;0.09;86.12
70708;SHT30;58277;47.316;18.908;2023-02-15T02:53:02;0.09;86.35
70708;SHT30;58277;47.316;18.908;2023-02-15T02:58:28;-0.10;86.36
70708;SHT30;58277;47.316;18.908;2023-02-15T03:00:57;-0.27;87.58
70708;SHT30;58277;47.316;18.908;2023-02-15T03:03:27;-0.35;87.65
70708;SHT30;58277;47.316;18.908;2023-02-15T03:05:55;-0.46;87.85
70708;SHT30;58277;47.316;18.908;2023-02-15T03:08:20;-0.27;87.37
70708;SHT30;58277;47.316;18.908;2023-02-15T03:10:44;-0.18;87.34
70708;SHT30;58277;47.316;18.908;2023-02-15T03:13:08;-0.13;86.92
70708;SHT30;58277;47.316;18.908;2023-02-15T03:15:37;-0.07;86.60
70708;SHT30;58277;47.316;18.908;2023-02-15T03:18:22;-0.07;86.66
70708;SHT30;58277;47.316;18.908;2023-02-15T03:20:46;-0.03;86.37
70708;SHT30;58277;47.316;18.908;2023-02-15T03:23:13;-0.17;86.63
70708;SHT30;58277;47.316;18.908;2023-02-15T03:25:44;-0.22;87.14
70708;SHT30;58277;47.316;18.908;2023-02-15T03:28:12;-0.27;87.14
70708;SHT30;58277;47.316;18.908;2023-02-15T03:30:37;-0.15;86.97
70708;SHT30;58277;47.316;18.908;2023-02-15T03:33:02;-0.24;87.03
70708;SHT30;58277;47.316;18.908;2023-02-15T03:35:33;-0.31;87.36
70708;SHT30;58277;47.316;18.908;2023-02-15T03:38:00;-0.44;87.98
70708;SHT30;58277;47.316;18.908;2023-02-15T03:40:29;-0.45;88.28
70708;SHT30;58277;47.316;18.908;2023-02-15T03:43:17;-0.39;88.40
70708;SHT30;58277;47.316;18.908;2023-02-15T03:45:46;-0.35;87.89
70708;SHT30;58277;47.316;18.908;2023-02-15T03:48:17;-0.31;87.73
70708;SHT30;58277;47.316;18.908;2023-02-15T03:50:40;-0.17;87.25
70708;SHT30;58277;47.316;18.908;2023-02-15T03:53:36;-0.17;86.86
70708;SHT30;58277;47.316;18.908;2023-02-15T03:56:00;-0.24;87.14
70708;SHT30;58277;47.316;18.908;2023-02-15T03:58:23;-0.32;87.21
70708;SHT30;58277;47.316;18.908;2023-02-15T04:01:12;-0.38;87.40
70708;SHT30;58277;47.316;18.908;2023-02-15T04:04:22;-0.37;87.33
70708;SHT30;58277;47.316;18.908;2023-02-15T04:06:47;-0.42;87.39
70708;SHT30;58277;47.316;18.908;2023-02-15T04:09:09;-0.35;87.16
70708;SHT30;58277;47.316;18.908;2023-02-15T04:11:51;-0.37;87.17
70708;SHT30;58277;47.316;18.908;2023-02-15T04:14:14;-0.45;87.40
70708;SHT30;58277;47.316;18.908;2023-02-15T04:16:55;-0.39;87.53
70708;SHT30;58277;47.316;18.908;2023-02-15T04:19:18;-0.39;87.55
70708;SHT30;58277;47.316;18.908;2023-02-15T04:22:14;-0.31;87.23
70708;SHT30;58277;47.316;18.908;2023-02-15T04:24:55;-0.35;87.36
70708;SHT30;58277;47.316;18.908;2023-02-15T04:27:36;-0.28;87.35
70708;SHT30;58277;47.316;18.908;2023-02-15T04:29:59;-0.17;87.03
70708;SHT30;58277;47.316;18.908;2023-02-15T04:32:22;-0.18;87.06
70708;SHT30;58277;47.316;18.908;2023-02-15T04:34:44;-0.32;87.41
70708;SHT30;58277;47.316;18.908;2023-02-15T04:37:07;-0.27;87.35
70708;SHT30;58277;47.316;18.908;2023-02-15T04:39:29;-0.29;87.43
70708;SHT30;58277;47.316;18.908;2023-02-15T04:41:52;-0.37;87.42
70708;SHT30;58277;47.316;18.908;2023-02-15T04:44:15;-0.22;87.25
70708;SHT30;58277;47.316;18.908;2023-02-15T04:46:38;-0.21;87.04
70708;SHT30;58277;47.316;18.908;2023-02-15T04:49:01;-0.15;87.26
70708;SHT30;58277;47.316;18.908;2023-02-15T04:51:24;-0.25;87.20
70708;SHT30;58277;47.316;18.908;2023-02-15T04:53:47;-0.22;87.21
70708;SHT30;58277;47.316;18.908;2023-02-15T04:56:10;-0.38;87.49
70708;SHT30;58277;47.316;18.908;2023-02-15T04:58:32;-0.39;87.21
70708;SHT30;58277;47.316;18.908;2023-02-15T05:00:56;-0.55;86.80
70708;SHT30;58277;47.316;18.908;2023-02-15T05:03:19;-0.72;87.35
70708;SHT30;58277;47.316;18.908;2023-02-15T05:05:42;-0.87;87.61
70708;SHT30;58277;47.316;18.908;2023-02-15T05:08:05;-0.97;87.64
70708;SHT30;58277;47.316;18.908;2023-02-15T05:10:27;-1.07;87.65
70708;SHT30;58277;47.316;18.908;2023-02-15T05:12:50;-1.05;87.97
70708;SHT30;58277;47.316;18.908;2023-02-15T05:15:13;-0.97;87.70
70708;SHT30;58277;47.316;18.908;2023-02-15T05:17:35;-1.08;87.84
70708;SHT30;58277;47.316;18.908;2023-02-15T05:19:58;-1.17;88.04
70708;SHT30;58277;47.316;18.908;2023-02-15T05:22:21;-1.17;87.89
70708;SHT30;58277;47.316;18.908;2023-02-15T05:24:44;-1.28;88.18
70708;SHT30;58277;47.316;18.908;2023-02-15T05:27:25;-1.27;88.09
70708;SHT30;58277;47.316;18.908;2023-02-15T05:30:07;-1.28;87.86
70708;SHT30;58277;47.316;18.908;2023-02-15T05:32:34;-1.20;87.60
70708;SHT30;58277;47.316;18.908;2023-02-15T05:34:57;-1.14;87.56
70708;SHT30;58277;47.316;18.908;2023-02-15T05:37:19;-1.14;88.10
70708;SHT30;58277;47.316;18.908;2023-02-15T05:39:42;-1.10;87.88
70708;SHT30;58277;47.316;18.908;2023-02-15T05:42:05;-0.94;87.68
70708;SHT30;58277;47.316;18.908;2023-02-15T05:44:28;-0.89;87.46
70708;SHT30;58277;47.316;18.908;2023-02-15T05:46:51;-0.89;87.67
70708;SHT30;58277;47.316;18.908;2023-02-15T05:49:14;-0.85;87.95
70708;SHT30;58277;47.316;18.908;2023-02-15T05:51:37;-0.76;87.63
70708;SHT30;58277;47.316;18.908;2023-02-15T05:54:00;-0.70;87.55
70708;SHT30;58277;47.316;18.908;2023-02-15T05:56:22;-0.66;87.37
70708;SHT30;58277;47.316;18.908;2023-02-15T05:58:45;-0.62;87.33
70708;SHT30;58277;47.316;18.908;2023-02-15T06:03:34;-0.45;87.13
70708;SHT30;58277;47.316;18.908;2023-02-15T06:06:01;-0.22;86.50
70708;SHT30;58277;47.316;18.908;2023-02-15T06:08:49;-0.25;86.25
70708;SHT30;58277;47.316;18.908;2023-02-15T06:11:15;-0.08;85.95
70708;SHT30;58277;47.316;18.908;2023-02-15T06:13:39;-0.04;85.59
70708;SHT30;58277;47.316;18.908;2023-02-15T06:16:05;0.17;84.99
70708;SHT30;58277;47.316;18.908;2023-02-15T06:18:33;0.25;84.40
70708;SHT30;58277;47.316;18.908;2023-02-15T06:20:57;0.31;84.29
70708;SHT30;58277;47.316;18.908;2023-02-15T06:23:24;0.42;84.09
70708;SHT30;58277;47.316;18.908;2023-02-15T06:25:56;0.59;83.95
70708;SHT30;58277;47.316;18.908;2023-02-15T06:28:25;0.79;83.59
70708;SHT30;58277;47.316;18.908;2023-02-15T06:30:49;0.93;82.86
70708;SHT30;58277;47.316;18.908;2023-02-15T06:33:12;1.04;82.85
70708;SHT30;58277;47.316;18.908;2023-02-15T06:35:35;1.26;82.07
70708;SHT30;58277;47.316;18.908;2023-02-15T06:37:58;1.35;81.80
70708;SHT30;58277;47.316;18.908;2023-02-15T06:40:21;1.45;81.58
70708;SHT30;58277;47.316;18.908;2023-02-15T06:42:44;1.65;81.24
70708;SHT30;58277;47.316;18.908;2023-02-15T06:45:07;2.03;79.92
70708;SHT30;58277;47.316;18.908;2023-02-15T06:47:35;2.45;78.46
70708;SHT30;58277;47.316;18.908;2023-02-15T06:50:03;2.64;77.34
70708;SHT30;58277;47.316;18.908;2023-02-15T06:52:26;2.86;76.65
70708;SHT30;58277;47.316;18.908;2023-02-15T06:54:50;3.27;75.36
70708;SHT30;58277;47.316;18.908;2023-02-15T06:57:13;3.60;74.37
70708;SHT30;58277;47.316;18.908;2023-02-15T06:59:37;3.99;72.89
70708;SHT30;58277;47.316;18.908;2023-02-15T07:02:00;4.37;71.54
70708;SHT30;58277;47.316;18.908;2023-02-15T07:04:23;4.71;70.41
70708;SHT30;58277;47.316;18.908;2023-02-15T07:06:47;5.04;69.17
70708;SHT30;58277;47.316;18.908;2023-02-15T07:09:15;5.51;67.64
70708;SHT30;58277;47.316;18.908;2023-02-15T07:11:39;5.99;65.75
70708;SHT30;58277;47.316;18.908;2023-02-15T07:14:21;6.53;63.94
70708;SHT30;58277;47.316;18.908;2023-02-15T07:16:45;6.94;62.28
70708;SHT30;58277;47.316;18.908;2023-02-15T07:19:09;6.98;60.66
70708;SHT30;58277;47.316;18.908;2023-02-15T07:21:33;7.25;60.41
70708;SHT30;58277;47.316;18.908;2023-02-15T07:23:58;6.81;60.12
70708;SHT30;58277;47.316;18.908;2023-02-15T07:26:21;6.30;61.81
70708;SHT30;58277;47.316;18.908;2023-02-15T07:28:46;5.56;63.99
70708;SHT30;58277;47.316;18.908;2023-02-15T07:31:10;4.99;66.16
70708;SHT30;58277;47.316;18.908;2023-02-15T07:33:34;5.46;65.60
70708;SHT30;58277;47.316;18.908;2023-02-15T07:36:00;5.65;64.78
70708;SHT30;58277;47.316;18.908;2023-02-15T07:38:27;5.23;66.87
70708;SHT30;58277;47.316;18.908;2023-02-15T07:40:50;4.74;68.82
70708;SHT30;58277;47.316;18.908;2023-02-15T07:43:14;4.74;69.50
70708;SHT30;58277;47.316;18.908;2023-02-15T07:45:39;5.12;69.04
70708;SHT30;58277;47.316;18.908;2023-02-15T07:48:02;5.08;69.95
70708;SHT30;58277;47.316;18.908;2023-02-15T07:50:26;5.39;68.90
70708;SHT30;58277;47.316;18.908;2023-02-15T07:52:50;4.65;70.25
70708;SHT30;58277;47.316;18.908;2023-02-15T07:55:13;5.50;68.08
70708;SHT30;58277;47.316;18.908;2023-02-15T07:57:36;5.92;67.25
70708;SHT30;58277;47.316;18.908;2023-02-15T07:59:59;5.79;66.95
70708;SHT30;58277;47.316;18.908;2023-02-15T08:02:22;5.26;68.64
70708;SHT30;58277;47.316;18.908;2023-02-15T08:04:45;6.25;66.40
70708;SHT30;58277;47.316;18.908;2023-02-15T08:07:09;5.48;68.73
70708;SHT30;58277;47.316;18.908;2023-02-15T08:09:32;4.65;71.13
70708;SHT30;58277;47.316;18.908;2023-02-15T08:11:56;4.56;72.32
70708;SHT30;58277;47.316;18.908;2023-02-15T08:14:21;4.23;73.22
70708;SHT30;58277;47.316;18.908;2023-02-15T08:16:50;4.29;73.24
70708;SHT30;58277;47.316;18.908;2023-02-15T08:21:42;4.19;73.91
70708;SHT30;58277;47.316;18.908;2023-02-15T08:24:07;4.19;74.46
70708;SHT30;58277;47.316;18.908;2023-02-15T08:26:31;4.17;74.22
70708;SHT30;58277;47.316;18.908;2023-02-15T08:28:54;3.88;75.76
70708;SHT30;58277;47.316;18.908;2023-02-15T08:31:17;3.95;75.55
70708;SHT30;58277;47.316;18.908;2023-02-15T08:33:41;4.16;75.71
70708;SHT30;58277;47.316;18.908;2023-02-15T08:36:16;4.02;75.64
70708;SHT30;58277;47.316;18.908;2023-02-15T08:38:39;4.05;75.81
70708;SHT30;58277;47.316;18.908;2023-02-15T08:41:20;4.10;75.86
70708;SHT30;58277;47.316;18.908;2023-02-15T08:43:43;4.05;75.91
70708;SHT30;58277;47.316;18.908;2023-02-15T08:46:06;4.22;75.52
70708;SHT30;58277;47.316;18.908;2023-02-15T08:48:30;4.49;74.70
70708;SHT30;58277;47.316;18.908;2023-02-15T08:50:53;4.60;74.11
70708;SHT30;58277;47.316;18.908;2023-02-15T08:53:16;4.81;73.60
70708;SHT30;58277;47.316;18.908;2023-02-15T08:55:43;4.98;74.33
70708;SHT30;58277;47.316;18.908;2023-02-15T08:58:06;5.12;73.42
70708;SHT30;58277;47.316;18.908;2023-02-15T09:00:29;5.27;72.50
70708;SHT30;58277;47.316;18.908;2023-02-15T09:02:52;5.27;72.07
70708;SHT30;58277;47.316;18.908;2023-02-15T09:05:15;5.48;71.78
70708;SHT30;58277;47.316;18.908;2023-02-15T09:07:38;5.58;71.23
70708;SHT30;58277;47.316;18.908;2023-02-15T09:10:01;5.64;71.03
70708;SHT30;58277;47.316;18.908;2023-02-15T09:12:24;5.61;71.00
70708;SHT30;58277;47.316;18.908;2023-02-15T09:14:48;5.42;71.69
70708;SHT30;58277;47.316;18.908;2023-02-15T09:17:12;5.61;71.46
70708;SHT30;58277;47.316;18.908;2023-02-15T09:19:37;5.57;71.82
70708;SHT30;58277;47.316;18.908;2023-02-15T09:22:14;5.33;72.23
70708;SHT30;58277;47.316;18.908;2023-02-15T09:24:37;5.50;71.80
70708;SHT30;58277;47.316;18.908;2023-02-15T09:27:00;5.64;71.53
70708;SHT30;58277;47.316;18.908;2023-02-15T09:29:23;5.51;71.78
70708;SHT30;58277;47.316;18.908;2023-02-15T09:31:49;5.57;71.92
70708;SHT30;58277;47.316;18.908;2023-02-15T09:34:15;5.77;71.08
70708;SHT30;58277;47.316;18.908;2023-02-15T09:36:40;5.64;71.75
70708;SHT30;58277;47.316;18.908;2023-02-15T09:49:04;5.97;70.85
70708;SHT30;58277;47.316;18.908;2023-02-15T09:51:55;6.22;70.12
70708;SHT30;58277;47.316;18.908;2023-02-15T09:54:22;6.28;70.04
70708;SHT30;58277;47.316;18.908;2023-02-15T09:56:53;6.21;69.86
70708;SHT30;58277;47.316;18.908;2023-02-15T10:10:38;6.71;68.40
70708;SHT30;58277;47.316;18.908;2023-02-15T10:13:01;6.95;68.16
70708;SHT30;58277;47.316;18.908;2023-02-15T10:19:11;7.36;66.67
70708;SHT30;58277;47.316;18.908;2023-02-15T10:26:47;7.77;68.26
70708;SHT30;58277;47.316;18.908;2023-02-15T10:32:26;7.74;67.40
70708;SHT30;58277;47.316;18.908;2023-02-15T10:34:56;7.78;66.69
70708;SHT30;58277;47.316;18.908;2023-02-15T10:38:03;7.85;65.37
70708;SHT30;58277;47.316;18.908;2023-02-15T10:48:41;8.28;66.22
70708;SHT30;58277;47.316;18.908;2023-02-15T10:51:59;8.25;65.35
70708;SHT30;58277;47.316;18.908;2023-02-15T10:54:42;8.11;65.84
70708;SHT30;58277;47.316;18.908;2023-02-15T10:57:18;8.21;65.55
70708;SHT30;58277;47.316;18.908;2023-02-15T11:02:54;8.48;64.40
70708;SHT30;58277;47.316;18.908;2023-02-15T11:05:52;8.49;64.00
70708;SHT30;58277;47.316;18.908;2023-02-15T11:08:22;8.35;64.22
70708;SHT30;58277;47.316;18.908;2023-02-15T11:10:57;8.31;63.87
70708;SHT30;58277;47.316;18.908;2023-02-15T11:13:24;8.24;64.89
70708;SHT30;58277;47.316;18.908;2023-02-15T11:15:53;8.36;64.22
70708;SHT30;58277;47.316;18.908;2023-02-15T11:21:39;8.25;64.33
70708;SHT30;58277;47.316;18.908;2023-02-15T11:24:30;8.39;64.13
70708;SHT30;58277;47.316;18.908;2023-02-15T11:32:15;8.57;62.63
70708;SHT30;58277;47.316;18.908;2023-02-15T11:42:49;8.63;61.97
70708;SHT30;58277;47.316;18.908;2023-02-15T11:47:46;8.56;62.30
70708;SHT30;58277;47.316;18.908;2023-02-15T11:50:16;8.54;62.40
70708;SHT30;58277;47.316;18.908;2023-02-15T11:52:41;8.54;62.95
70708;SHT30;58277;47.316;18.908;2023-02-15T11:55:13;8.63;62.98
70708;SHT30;58277;47.316;18.908;2023-02-15T11:57:44;8.62;63.23
70708;SHT30;58277;47.316;18.908;2023-02-15T12:02:46;8.77;62.82
70708;SHT30;58277;47.316;18.908;2023-02-15T12:05:17;8.91;62.23
70708;SHT30;58277;47.316;18.908;2023-02-15T12:07:55;8.91;61.27
70708;SHT30;58277;47.316;18.908;2023-02-15T12:10:26;8.91;61.63
70708;SHT30;58277;47.316;18.908;2023-02-15T12:13:13;8.90;61.68
70708;SHT30;58277;47.316;18.908;2023-02-15T12:15:38;8.98;61.87
70708;SHT30;58277;47.316;18.908;2023-02-15T12:18:03;8.70;62.50
70708;SHT30;58277;47.316;18.908;2023-02-15T12:20:31;8.80;61.95
70708;SHT30;58277;47.316;18.908;2023-02-15T12:23:03;8.97;61.32
70708;SHT30;58277;47.316;18.908;2023-02-15T12:25:37;9.04;61.36
70708;SHT30;58277;47.316;18.908;2023-02-15T12:30:54;8.79;62.63
70708;SHT30;58277;47.316;18.908;2023-02-15T12:33:34;9.07;62.03
70708;SHT30;58277;47.316;18.908;2023-02-15T12:36:25;8.97;62.59
70708;SHT30;58277;47.316;18.908;2023-02-15T12:39:15;9.11;62.18
70708;SHT30;58277;47.316;18.908;2023-02-15T12:42:03;9.29;61.77
70708;SHT30;58277;47.316;18.908;2023-02-15T12:44:34;9.21;61.46
70708;SHT30;58277;47.316;18.908;2023-02-15T12:47:10;9.12;61.99
70708;SHT30;58277;47.316;18.908;2023-02-15T12:49:40;9.22;62.05
70708;SHT30;58277;47.316;18.908;2023-02-15T12:52:29;9.15;61.93
70708;SHT30;58277;47.316;18.908;2023-02-15T12:54:52;9.15;61.59
70708;SHT30;58277;47.316;18.908;2023-02-15T12:57:32;9.17;61.81
70708;SHT30;58277;47.316;18.908;2023-02-15T13:00:05;9.27;61.79
70708;SHT30;58277;47.316;18.908;2023-02-15T13:05:05;9.45;60.81
70708;SHT30;58277;47.316;18.908;2023-02-15T13:07:31;9.59;60.74
70708;SHT30;58277;47.316;18.908;2023-02-15T13:09:55;9.50;61.34
70708;SHT30;58277;47.316;18.908;2023-02-15T13:12:23;9.39;61.59
70708;SHT30;58277;47.316;18.908;2023-02-15T13:14:51;9.45;60.71
70708;SHT30;58277;47.316;18.908;2023-02-15T13:17:15;9.43;60.67
70708;SHT30;58277;47.316;18.908;2023-02-15T13:20:02;9.19;61.10
70708;SHT30;58277;47.316;18.908;2023-02-15T13:22:38;9.29;61.43
70708;SHT30;58277;47.316;18.908;2023-02-15T13:25:12;9.35;60.99
70708;SHT30;58277;47.316;18.908;2023-02-15T13:27:38;9.40;60.85
70708;SHT30;58277;47.316;18.908;2023-02-15T13:30:04;9.42;61.03
70708;SHT30;58277;47.316;18.908;2023-02-15T13:32:37;9.46;61.46
70708;SHT30;58277;47.316;18.908;2023-02-15T13:35:03;9.34;61.75
70708;SHT30;58277;47.316;18.908;2023-02-15T13:40:00;9.38;60.60
70708;SHT30;58277;47.316;18.908;2023-02-15T13:42:35;9.55;60.40
70708;SHT30;58277;47.316;18.908;2023-02-15T13:47:45;9.29;60.95
70708;SHT30;58277;47.316;18.908;2023-02-15T13:52:56;9.22;62.22
70708;SHT30;58277;47.316;18.908;2023-02-15T14:26:50;9.04;61.90
70708;SHT30;58277;47.316;18.908;2023-02-15T14:29:36;8.97;62.53
70708;SHT30;58277;47.316;18.908;2023-02-15T14:34:52;8.98;62.45
70708;SHT30;58277;47.316;18.908;2023-02-15T14:37:22;8.84;62.91
70708;SHT30;58277;47.316;18.908;2023-02-15T14:40:04;8.80;63.45
70708;SHT30;58277;47.316;18.908;2023-02-15T14:43:00;8.88;63.03
70708;SHT30;58277;47.316;18.908;2023-02-15T14:45:55;8.80;63.13
70708;SHT30;58277;47.316;18.908;2023-02-15T14:48:28;8.88;62.74
70708;SHT30;58277;47.316;18.908;2023-02-15T14:50:52;8.56;63.28
70708;SHT30;58277;47.316;18.908;2023-02-15T14:55:38;8.45;64.25
70708;SHT30;58277;47.316;18.908;2023-02-15T14:58:01;8.62;63.91
70708;SHT30;58277;47.316;18.908;2023-02-15T15:00:36;8.64;63.68
70708;SHT30;58277;47.316;18.908;2023-02-15T15:03:00;8.50;64.30
70708;SHT30;58277;47.316;18.908;2023-02-15T15:05:34;8.46;63.99
70708;SHT30;58277;47.316;18.908;2023-02-15T15:07:58;8.52;63.99
70708;SHT30;58277;47.316;18.908;2023-02-15T15:15:33;7.95;65.68
70708;SHT30;58277;47.316;18.908;2023-02-15T15:20:50;7.95;66.05
70708;SHT30;58277;47.316;18.908;2023-02-15T15:25:57;7.84;66.52
70708;SHT30;58277;47.316;18.908;2023-02-15T15:30:55;7.83;67.25
70708;SHT30;58277;47.316;18.908;2023-02-15T15:33:39;7.80;67.37
70708;SHT30;58277;47.316;18.908;2023-02-15T15:42:03;7.55;68.29
70708;SHT30;58277;47.316;18.908;2023-02-15T15:50:00;7.28;69.37
70708;SHT30;58277;47.316;18.908;2023-02-15T15:52:23;7.12;69.68
70708;SHT30;58277;47.316;18.908;2023-02-15T15:54:51;6.92;70.51
70708;SHT30;58277;47.316;18.908;2023-02-15T15:57:31;6.80;71.11
70708;SHT30;58277;47.316;18.908;2023-02-15T15:59:56;6.73;71.38
70708;SHT30;58277;47.316;18.908;2023-02-15T16:02:21;6.64;71.63
70708;SHT30;58277;47.316;18.908;2023-02-15T16:04:46;6.50;72.11
70708;SHT30;58277;47.316;18.908;2023-02-15T16:07:28;6.25;72.74
